sensor_id;sensor_type;location;lat;lon;timestamp;temperature;humidity
19060;DHT22;9663;48.996;8.334;2022-12-28T00:01:25;5.10;75.60
19060;DHT22;9663;48.996;8.334;2022-12-28T00:03:53;4.70;75.50
19060;DHT22;9663;48.996;8.334;2022-12-28T00:06:21;4.90;75.30
19060;DHT22;9663;48.996;8.334;2022-12-28T00:08:50;5.00;75.30
19060;DHT22;9663;48.996;8.334;2022-12-28T00:11:19;4.60;75.00
19060;DHT22;9663;48.996;8.334;2022-12-28T00:13:46;5.10;75.30
19060;DHT22;9663;48.996;8.334;2022-12-28T00:18:49;5.00;75.60
19060;DHT22;9663;48.996;8.334;2022-12-28T00:21:15;5.10;75.30
19060;DHT22;9663;48.996;8.334;2022-12-28T00:23:41;5.10;75.30
19060;DHT22;9663;48.996;8.334;2022-12-28T00:26:09;5.00;75.20
19060;DHT22;9663;48.996;8.334;2022-12-28T00:28:37;6.00;75.70
19060;DHT22;9663;48.996;8.334;2022-12-28T00:31:04;5.10;75.20
19060;DHT22;9663;48.996;8.334;2022-12-28T00:33:30;4.90;75.10
19060;DHT22;9663;48.996;8.334;2022-12-28T00:35:58;5.10;75.20
19060;DHT22;9663;48.996;8.334;2022-12-28T00:38:26;5.30;75.30
19060;DHT22;9663;48.996;8.334;2022-12-28T00:40:56;5.10;75.30
19060;DHT22;9663;48.996;8.334;2022-12-28T00:43:22;5.10;75.50
19060;DHT22;9663;48.996;8.334;2022-12-28T00:45:48;6.90;76.10
19060;DHT22;9663;48.996;8.334;2022-12-28T00:48:15;5.60;75.50
19060;DHT22;9663;48.996;8.334;2022-12-28T00:50:41;5.30;76.00
19060;DHT22;9663;48.996;8.334;2022-12-28T00:53:08;5.70;75.40
19060;DHT22;9663;48.996;8.334;2022-12-28T00:55:35;5.00;75.00
19060;DHT22;9663;48.996;8.334;2022-12-28T00:58:02;5.50;75.30
19060;DHT22;9663;48.996;8.334;2022-12-28T01:00:29;5.30;75.10
19060;DHT22;9663;48.996;8.334;2022-12-28T01:02:56;5.40;75.20
19060;DHT22;9663;48.996;8.334;2022-12-28T01:05:22;5.40;75.20
19060;DHT22;9663;48.996;8.334;2022-12-28T01:07:48;5.40;75.20
19060;DHT22;9663;48.996;8.334;2022-12-28T01:10:14;5.40;75.30
19060;DHT22;9663;48.996;8.334;2022-12-28T01:12:40;5.80;75.50
19060;DHT22;9663;48.996;8.334;2022-12-28T01:15:08;5.60;75.30
19060;DHT22;9663;48.996;8.334;2022-12-28T01:17:36;5.60;75.10
19060;DHT22;9663;48.996;8.334;2022-12-28T01:20:03;5.50;75.30
19060;DHT22;9663;48.996;8.334;2022-12-28T01:22:30;5.80;75.00
19060;DHT22;9663;48.996;8.334;2022-12-28T01:24:55;6.10;75.30
19060;DHT22;9663;48.996;8.334;2022-12-28T01:27:21;5.80;75.10
19060;DHT22;9663;48.996;8.334;2022-12-28T01:29:46;6.30;75.30
19060;DHT22;9663;48.996;8.334;2022-12-28T01:32:12;6.20;75.10
19060;DHT22;9663;48.996;8.334;2022-12-28T01:34:38;5.90;74.90
19060;DHT22;9663;48.996;8.334;2022-12-28T01:37:03;6.50;75.30
19060;DHT22;9663;48.996;8.334;2022-12-28T01:39:29;6.30;75.30
19060;DHT22;9663;48.996;8.334;2022-12-28T01:41:55;6.20;75.10
19060;DHT22;9663;48.996;8.334;2022-12-28T01:46:59;6.10;74.80
19060;DHT22;9663;48.996;8.334;2022-12-28T01:52:03;6.40;75.00
19060;DHT22;9663;48.996;8.334;2022-12-28T01:54:45;6.30;74.80
19060;DHT22;9663;48.996;8.334;2022-12-28T01:57:14;6.30;73.80
19060;DHT22;9663;48.996;8.334;2022-12-28T01:59:43;6.80;75.00
19060;DHT22;9663;48.996;8.334;2022-12-28T02:02:13;6.30;74.80
19060;DHT22;9663;48.996;8.334;2022-12-28T02:04:39;7.00;75.50
19060;DHT22;9663;48.996;8.334;2022-12-28T02:07:05;6.50;75.00
19060;DHT22;9663;48.996;8.334;2022-12-28T02:09:36;6.70;75.10
19060;DHT22;9663;48.996;8.334;2022-12-28T02:12:12;6.50;74.90
19060;DHT22;9663;48.996;8.334;2022-12-28T02:14:42;6.50;75.00
19060;DHT22;9663;48.996;8.334;2022-12-28T02:17:09;6.60;75.00
19060;DHT22;9663;48.996;8.334;2022-12-28T02:19:46;6.70;74.90
19060;DHT22;9663;48.996;8.334;2022-12-28T02:31:48;6.70;75.20
19060;DHT22;9663;48.996;8.334;2022-12-28T02:34:45;6.70;75.10
19060;DHT22;9663;48.996;8.334;2022-12-28T02:37:48;6.50;75.10
19060;DHT22;9663;48.996;8.334;2022-12-28T02:40:33;6.50;73.60
19060;DHT22;9663;48.996;8.334;2022-12-28T02:43:04;6.70;75.10
19060;DHT22;9663;48.996;8.334;2022-12-28T02:48:16;6.60;74.60
19060;DHT22;9663;48.996;8.334;2022-12-28T02:51:22;6.60;74.00
19060;DHT22;9663;48.996;8.334;2022-12-28T02:54:28;7.20;75.30
19060;DHT22;9663;48.996;8.334;2022-12-28T03:00:11;6.70;73.70
19060;DHT22;9663;48.996;8.334;2022-12-28T03:05:42;6.60;73.70
19060;DHT22;9663;48.996;8.334;2022-12-28T03:11:42;6.90;74.10
19060;DHT22;9663;48.996;8.334;2022-12-28T03:14:21;6.90;75.10
19060;DHT22;9663;48.996;8.334;2022-12-28T03:16:53;6.80;75.00
19060;DHT22;9663;48.996;8.334;2022-12-28T03:19:46;6.50;75.00
19060;DHT22;9663;48.996;8.334;2022-12-28T03:22:39;6.80;75.10
19060;DHT22;9663;48.996;8.334;2022-12-28T03:25:29;8.10;76.00
19060;DHT22;9663;48.996;8.334;2022-12-28T03:28:20;7.10;75.30
19060;DHT22;9663;48.996;8.334;2022-12-28T03:31:12;6.80;75.10
19060;DHT22;9663;48.996;8.334;2022-12-28T03:33:47;6.80;75.10
19060;DHT22;9663;48.996;8.334;2022-12-28T03:36:35;6.90;75.30
19060;DHT22;9663;48.996;8.334;2022-12-28T03:39:31;6.90;74.00
19060;DHT22;9663;48.996;8.334;2022-12-28T03:42:33;7.80;75.80
19060;DHT22;9663;48.996;8.334;2022-12-28T03:45:32;6.90;73.90
19060;DHT22;9663;48.996;8.334;2022-12-28T03:48:02;6.90;75.10
19060;DHT22;9663;48.996;8.334;2022-12-28T03:50:30;7.00;75.00
19060;DHT22;9663;48.996;8.334;2022-12-28T03:53:00;7.00;75.00
19060;DHT22;9663;48.996;8.334;2022-12-28T03:55:26;7.00;75.00
19060;DHT22;9663;48.996;8.334;2022-12-28T03:57:52;7.20;75.20
19060;DHT22;9663;48.996;8.334;2022-12-28T04:00:17;6.90;75.20
19060;DHT22;9663;48.996;8.334;2022-12-28T04:02:43;6.90;75.90
19060;DHT22;9663;48.996;8.334;2022-12-28T04:05:09;7.40;75.30
19060;DHT22;9663;48.996;8.334;2022-12-28T04:07:34;7.60;75.30
19060;DHT22;9663;48.996;8.334;2022-12-28T04:10:00;7.50;75.20
19060;DHT22;9663;48.996;8.334;2022-12-28T04:12:26;7.50;75.10
19060;DHT22;9663;48.996;8.334;2022-12-28T04:14:51;7.90;75.20
19060;DHT22;9663;48.996;8.334;2022-12-28T04:17:17;7.80;74.90
19060;DHT22;9663;48.996;8.334;2022-12-28T04:19:43;7.80;74.60
19060;DHT22;9663;48.996;8.334;2022-12-28T04:22:08;8.10;74.40
19060;DHT22;9663;48.996;8.334;2022-12-28T04:24:34;8.20;74.40
19060;DHT22;9663;48.996;8.334;2022-12-28T04:26:59;9.10;74.90
19060;DHT22;9663;48.996;8.334;2022-12-28T04:29:25;8.20;74.00
19060;DHT22;9663;48.996;8.334;2022-12-28T04:31:51;8.40;74.00
19060;DHT22;9663;48.996;8.334;2022-12-28T04:34:17;8.10;73.60
19060;DHT22;9663;48.996;8.334;2022-12-28T04:36:42;8.20;73.70
19060;DHT22;9663;48.996;8.334;2022-12-28T04:39:08;8.30;73.70
19060;DHT22;9663;48.996;8.334;2022-12-28T04:41:34;9.60;74.50
19060;DHT22;9663;48.996;8.334;2022-12-28T04:44:00;8.30;73.60
19060;DHT22;9663;48.996;8.334;2022-12-28T04:46:25;8.40;73.70
19060;DHT22;9663;48.996;8.334;2022-12-28T04:48:51;8.50;73.70
19060;DHT22;9663;48.996;8.334;2022-12-28T04:51:23;8.60;73.60
19060;DHT22;9663;48.996;8.334;2022-12-28T04:53:51;9.10;73.00
19060;DHT22;9663;48.996;8.334;2022-12-28T04:56:19;8.70;73.20
19060;DHT22;9663;48.996;8.334;2022-12-28T04:58:46;9.00;73.50
19060;DHT22;9663;48.996;8.334;2022-12-28T05:01:15;8.60;73.10
19060;DHT22;9663;48.996;8.334;2022-12-28T05:03:44;8.80;73.10
19060;DHT22;9663;48.996;8.334;2022-12-28T05:06:14;8.60;73.40
19060;DHT22;9663;48.996;8.334;2022-12-28T05:08:44;9.20;73.50
19060;DHT22;9663;48.996;8.334;2022-12-28T05:11:17;9.10;73.30
19060;DHT22;9663;48.996;8.334;2022-12-28T05:13:44;8.90;74.10
19060;DHT22;9663;48.996;8.334;2022-12-28T05:16:16;9.30;73.30
19060;DHT22;9663;48.996;8.334;2022-12-28T05:18:44;9.10;72.10
19060;DHT22;9663;48.996;8.334;2022-12-28T05:21:13;9.50;73.40
19060;DHT22;9663;48.996;8.334;2022-12-28T05:23:41;9.10;73.00
19060;DHT22;9663;48.996;8.334;2022-12-28T05:26:11;9.50;73.20
19060;DHT22;9663;48.996;8.334;2022-12-28T05:28:39;9.30;72.90
19060;DHT22;9663;48.996;8.334;2022-12-28T05:31:06;11.10;73.80
19060;DHT22;9663;48.996;8.334;2022-12-28T05:33:35;10.90;73.30
19060;DHT22;9663;48.996;8.334;2022-12-28T05:36:22;9.50;72.70
19060;DHT22;9663;48.996;8.334;2022-12-28T05:38:51;9.60;72.60
19060;DHT22;9663;48.996;8.334;2022-12-28T05:41:23;9.70;72.60
19060;DHT22;9663;48.996;8.334;2022-12-28T05:43:51;10.00;72.60
19060;DHT22;9663;48.996;8.334;2022-12-28T05:46:23;9.90;72.60
19060;DHT22;9663;48.996;8.334;2022-12-28T05:48:51;9.50;71.90
19060;DHT22;9663;48.996;8.334;2022-12-28T05:51:20;10.00;72.40
19060;DHT22;9663;48.996;8.334;2022-12-28T05:53:47;9.80;72.10
19060;DHT22;9663;48.996;8.334;2022-12-28T05:56:18;10.80;72.70
19060;DHT22;9663;48.996;8.334;2022-12-28T05:58:51;9.60;71.00
19060;DHT22;9663;48.996;8.334;2022-12-28T06:01:21;10.60;72.50
19060;DHT22;9663;48.996;8.334;2022-12-28T06:03:52;10.20;72.10
19060;DHT22;9663;48.996;8.334;2022-12-28T06:06:20;10.70;72.10
19060;DHT22;9663;48.996;8.334;2022-12-28T06:08:48;10.20;72.00
19060;DHT22;9663;48.996;8.334;2022-12-28T06:11:20;10.00;71.60
19060;DHT22;9663;48.996;8.334;2022-12-28T06:13:48;11.00;72.10
19060;DHT22;9663;48.996;8.334;2022-12-28T06:16:18;10.20;71.50
19060;DHT22;9663;48.996;8.334;2022-12-28T06:18:45;10.30;71.60
19060;DHT22;9663;48.996;8.334;2022-12-28T06:23:46;10.10;71.00
19060;DHT22;9663;48.996;8.334;2022-12-28T06:26:15;10.20;71.20
19060;DHT22;9663;48.996;8.334;2022-12-28T06:28:43;10.20;71.10
19060;DHT22;9663;48.996;8.334;2022-12-28T06:31:17;10.00;70.80
19060;DHT22;9663;48.996;8.334;2022-12-28T06:33:45;10.20;70.10
19060;DHT22;9663;48.996;8.334;2022-12-28T06:38:45;9.90;70.20
19060;DHT22;9663;48.996;8.334;2022-12-28T06:41:12;10.10;70.90
19060;DHT22;9663;48.996;8.334;2022-12-28T06:43:41;10.30;71.40
19060;DHT22;9663;48.996;8.334;2022-12-28T06:46:08;9.90;70.70
19060;DHT22;9663;48.996;8.334;2022-12-28T06:48:34;10.10;70.70
19060;DHT22;9663;48.996;8.334;2022-12-28T06:53:41;10.10;70.20
19060;DHT22;9663;48.996;8.334;2022-12-28T06:56:13;10.20;71.20
19060;DHT22;9663;48.996;8.334;2022-12-28T06:58:45;10.20;71.00
19060;DHT22;9663;48.996;8.334;2022-12-28T07:01:17;9.80;70.70
19060;DHT22;9663;48.996;8.334;2022-12-28T07:03:45;10.10;70.10
19060;DHT22;9663;48.996;8.334;2022-12-28T07:06:12;11.30;71.60
19060;DHT22;9663;48.996;8.334;2022-12-28T07:08:40;10.50;71.20
19060;DHT22;9663;48.996;8.334;2022-12-28T07:11:18;10.10;70.90
19060;DHT22;9663;48.996;8.334;2022-12-28T07:13:46;10.50;71.20
19060;DHT22;9663;48.996;8.334;2022-12-28T07:16:20;9.90;70.80
19060;DHT22;9663;48.996;8.334;2022-12-28T07:18:48;10.20;70.20
19060;DHT22;9663;48.996;8.334;2022-12-28T07:21:21;10.40;71.20
19060;DHT22;9663;48.996;8.334;2022-12-28T07:23:49;10.20;71.00
19060;DHT22;9663;48.996;8.334;2022-12-28T07:26:21;10.10;70.90
19060;DHT22;9663;48.996;8.334;2022-12-28T07:28:50;9.80;70.80
19060;DHT22;9663;48.996;8.334;2022-12-28T07:31:26;10.40;71.20
19060;DHT22;9663;48.996;8.334;2022-12-28T07:33:57;10.70;71.10
19060;DHT22;9663;48.996;8.334;2022-12-28T07:36:26;10.40;71.00
19060;DHT22;9663;48.996;8.334;2022-12-28T07:38:53;10.20;70.80
19060;DHT22;9663;48.996;8.334;2022-12-28T07:41:25;10.20;70.80
19060;DHT22;9663;48.996;8.334;2022-12-28T07:43:52;10.50;71.20
19060;DHT22;9663;48.996;8.334;2022-12-28T07:46:29;10.30;70.70
19060;DHT22;9663;48.996;8.334;2022-12-28T07:48:56;10.50;70.60
19060;DHT22;9663;48.996;8.334;2022-12-28T07:51:33;10.30;70.70
19060;DHT22;9663;48.996;8.334;2022-12-28T07:54:01;10.80;70.70
19060;DHT22;9663;48.996;8.334;2022-12-28T07:56:29;10.30;70.50
19060;DHT22;9663;48.996;8.334;2022-12-28T07:58:57;10.70;71.10
19060;DHT22;9663;48.996;8.334;2022-12-28T08:01:28;10.70;70.80
19060;DHT22;9663;48.996;8.334;2022-12-28T08:04:04;10.70;70.70
19060;DHT22;9663;48.996;8.334;2022-12-28T08:06:34;10.50;70.60
19060;DHT22;9663;48.996;8.334;2022-12-28T08:09:03;10.50;70.60
19060;DHT22;9663;48.996;8.334;2022-12-28T08:11:32;10.70;70.70
19060;DHT22;9663;48.996;8.334;2022-12-28T08:14:00;10.60;70.50
19060;DHT22;9663;48.996;8.334;2022-12-28T08:16:30;10.80;70.50
19060;DHT22;9663;48.996;8.334;2022-12-28T08:18:58;10.60;70.30
19060;DHT22;9663;48.996;8.334;2022-12-28T08:21:28;10.70;70.20
19060;DHT22;9663;48.996;8.334;2022-12-28T08:23:55;11.20;69.80
19060;DHT22;9663;48.996;8.334;2022-12-28T08:26:28;10.60;70.10
19060;DHT22;9663;48.996;8.334;2022-12-28T08:28:59;11.00;70.30
19060;DHT22;9663;48.996;8.334;2022-12-28T08:31:32;11.10;70.20
19060;DHT22;9663;48.996;8.334;2022-12-28T08:34:01;11.70;70.70
19060;DHT22;9663;48.996;8.334;2022-12-28T08:36:28;10.70;70.20
19060;DHT22;9663;48.996;8.334;2022-12-28T08:38:54;10.80;70.40
19060;DHT22;9663;48.996;8.334;2022-12-28T08:41:23;11.10;71.00
19060;DHT22;9663;48.996;8.334;2022-12-28T08:43:53;11.20;71.10
19060;DHT22;9663;48.996;8.334;2022-12-28T08:48:49;11.60;71.40
19060;DHT22;9663;48.996;8.334;2022-12-28T08:51:22;11.40;71.50
19060;DHT22;9663;48.996;8.334;2022-12-28T08:54:02;11.20;69.50
19060;DHT22;9663;48.996;8.334;2022-12-28T08:56:33;11.60;71.20
19060;DHT22;9663;48.996;8.334;2022-12-28T08:59:01;11.40;70.80
19060;DHT22;9663;48.996;8.334;2022-12-28T09:01:30;12.20;71.90
19060;DHT22;9663;48.996;8.334;2022-12-28T09:03:59;11.30;70.30
19060;DHT22;9663;48.996;8.334;2022-12-28T09:06:37;11.50;70.20
19060;DHT22;9663;48.996;8.334;2022-12-28T09:09:05;11.60;69.90
19060;DHT22;9663;48.996;8.334;2022-12-28T09:11:33;11.80;70.20
19060;DHT22;9663;48.996;8.334;2022-12-28T09:14:01;11.60;70.00
19060;DHT22;9663;48.996;8.334;2022-12-28T09:16:28;11.70;70.00
19060;DHT22;9663;48.996;8.334;2022-12-28T09:18:59;13.30;70.70
19060;DHT22;9663;48.996;8.334;2022-12-28T09:21:29;11.90;69.50
19060;DHT22;9663;48.996;8.334;2022-12-28T09:23:57;11.80;69.40
19060;DHT22;9663;48.996;8.334;2022-12-28T09:26:28;12.70;69.80
19060;DHT22;9663;48.996;8.334;2022-12-28T09:28:58;11.80;69.20
19060;DHT22;9663;48.996;8.334;2022-12-28T09:31:27;12.00;69.30
19060;DHT22;9663;48.996;8.334;2022-12-28T09:33:54;13.10;69.60
19060;DHT22;9663;48.996;8.334;2022-12-28T09:36:24;14.00;69.80
19060;DHT22;9663;48.996;8.334;2022-12-28T09:39:05;12.20;68.90
19060;DHT22;9663;48.996;8.334;2022-12-28T09:41:50;11.80;68.50
19060;DHT22;9663;48.996;8.334;2022-12-28T09:47:27;12.00;66.90
19060;DHT22;9663;48.996;8.334;2022-12-28T09:50:12;12.50;68.60
19060;DHT22;9663;48.996;8.334;2022-12-28T09:53:29;12.10;67.70
19060;DHT22;9663;48.996;8.334;2022-12-28T09:59:13;12.40;67.80
19060;DHT22;9663;48.996;8.334;2022-12-28T10:01:44;13.20;68.50
19060;DHT22;9663;48.996;8.334;2022-12-28T10:04:20;13.90;69.20
19060;DHT22;9663;48.996;8.334;2022-12-28T10:06:46;12.60;68.10
19060;DHT22;9663;48.996;8.334;2022-12-28T10:09:21;12.40;68.10
19060;DHT22;9663;48.996;8.334;2022-12-28T10:11:58;12.50;67.60
19060;DHT22;9663;48.996;8.334;2022-12-28T10:14:29;12.60;67.60
19060;DHT22;9663;48.996;8.334;2022-12-28T10:17:00;12.80;67.40
19060;DHT22;9663;48.996;8.334;2022-12-28T10:19:27;12.90;67.40
19060;DHT22;9663;48.996;8.334;2022-12-28T10:22:06;13.90;67.70
19060;DHT22;9663;48.996;8.334;2022-12-28T10:24:35;12.60;66.60
19060;DHT22;9663;48.996;8.334;2022-12-28T10:27:05;13.20;67.40
19060;DHT22;9663;48.996;8.334;2022-12-28T10:29:32;14.70;68.20
19060;DHT22;9663;48.996;8.334;2022-12-28T10:32:05;13.60;67.60
19060;DHT22;9663;48.996;8.334;2022-12-28T10:34:55;12.80;66.40
19060;DHT22;9663;48.996;8.334;2022-12-28T10:37:26;12.90;66.20
19060;DHT22;9663;48.996;8.334;2022-12-28T10:39:56;13.30;67.40
19060;DHT22;9663;48.996;8.334;2022-12-28T10:42:34;13.30;66.70
19060;DHT22;9663;48.996;8.334;2022-12-28T10:45:06;13.20;65.50
19060;DHT22;9663;48.996;8.334;2022-12-28T10:47:45;13.30;66.00
19060;DHT22;9663;48.996;8.334;2022-12-28T10:50:40;13.30;66.10
19060;DHT22;9663;48.996;8.334;2022-12-28T10:53:29;13.20;65.40
19060;DHT22;9663;48.996;8.334;2022-12-28T10:58:50;13.20;65.60
19060;DHT22;9663;48.996;8.334;2022-12-28T11:01:39;13.40;65.40
19060;DHT22;9663;48.996;8.334;2022-12-28T11:04:18;13.40;66.20
19060;DHT22;9663;48.996;8.334;2022-12-28T11:06:55;13.20;65.50
19060;DHT22;9663;48.996;8.334;2022-12-28T11:09:31;13.40;65.70
19060;DHT22;9663;48.996;8.334;2022-12-28T11:12:24;13.20;65.50
19060;DHT22;9663;48.996;8.334;2022-12-28T11:14:51;13.40;64.20
19060;DHT22;9663;48.996;8.334;2022-12-28T11:17:25;13.40;65.70
19060;DHT22;9663;48.996;8.334;2022-12-28T11:19:56;14.70;66.30
19060;DHT22;9663;48.996;8.334;2022-12-28T11:22:38;13.70;65.80
19060;DHT22;9663;48.996;8.334;2022-12-28T11:25:05;13.60;66.00
19060;DHT22;9663;48.996;8.334;2022-12-28T11:27:33;13.60;66.00
19060;DHT22;9663;48.996;8.334;2022-12-28T11:30:02;14.20;66.00
19060;DHT22;9663;48.996;8.334;2022-12-28T11:32:38;14.40;66.00
19060;DHT22;9663;48.996;8.334;2022-12-28T11:35:20;15.20;65.90
19060;DHT22;9663;48.996;8.334;2022-12-28T11:37:55;15.50;64.10
19060;DHT22;9663;48.996;8.334;2022-12-28T11:40:52;16.80;64.90
19060;DHT22;9663;48.996;8.334;2022-12-28T11:43:36;16.80;62.10
19060;DHT22;9663;48.996;8.334;2022-12-28T11:48:58;16.70;61.30
19060;DHT22;9663;48.996;8.334;2022-12-28T11:54:03;16.90;60.30
19060;DHT22;9663;48.996;8.334;2022-12-28T11:59:31;16.80;61.60
19060;DHT22;9663;48.996;8.334;2022-12-28T12:02:00;16.90;61.00
19060;DHT22;9663;48.996;8.334;2022-12-28T12:09:41;17.30;60.30
19060;DHT22;9663;48.996;8.334;2022-12-28T12:14:48;16.80;59.30
19060;DHT22;9663;48.996;8.334;2022-12-28T12:17:38;16.50;59.50
19060;DHT22;9663;48.996;8.334;2022-12-28T12:20:25;16.30;59.30
19060;DHT22;9663;48.996;8.334;2022-12-28T12:23:06;16.20;59.40
19060;DHT22;9663;48.996;8.334;2022-12-28T12:25:41;15.90;60.30
19060;DHT22;9663;48.996;8.334;2022-12-28T12:31:17;15.40;60.40
19060;DHT22;9663;48.996;8.334;2022-12-28T12:33:49;15.70;61.70
19060;DHT22;9663;48.996;8.334;2022-12-28T12:36:27;15.20;61.60
19060;DHT22;9663;48.996;8.334;2022-12-28T12:39:37;15.20;61.30
19060;DHT22;9663;48.996;8.334;2022-12-28T12:42:23;15.60;61.10
19060;DHT22;9663;48.996;8.334;2022-12-28T12:45:21;15.60;61.40
19060;DHT22;9663;48.996;8.334;2022-12-28T12:58:24;15.10;61.00
19060;DHT22;9663;48.996;8.334;2022-12-28T13:04:07;15.10;60.70
19060;DHT22;9663;48.996;8.334;2022-12-28T13:06:39;14.70;61.40
19060;DHT22;9663;48.996;8.334;2022-12-28T13:09:06;14.80;62.00
19060;DHT22;9663;48.996;8.334;2022-12-28T13:11:43;14.80;62.00
19060;DHT22;9663;48.996;8.334;2022-12-28T13:14:16;14.80;61.60
19060;DHT22;9663;48.996;8.334;2022-12-28T13:16:50;14.90;61.50
19060;DHT22;9663;48.996;8.334;2022-12-28T13:19:23;15.20;62.00
19060;DHT22;9663;48.996;8.334;2022-12-28T13:21:52;15.00;61.90
19060;DHT22;9663;48.996;8.334;2022-12-28T13:26:48;15.60;62.70
19060;DHT22;9663;48.996;8.334;2022-12-28T13:29:21;14.60;61.50
19060;DHT22;9663;48.996;8.334;2022-12-28T13:31:49;14.70;61.20
19060;DHT22;9663;48.996;8.334;2022-12-28T13:34:22;16.10;62.50
19060;DHT22;9663;48.996;8.334;2022-12-28T13:36:56;14.80;61.50
19060;DHT22;9663;48.996;8.334;2022-12-28T13:39:28;14.90;61.40
19060;DHT22;9663;48.996;8.334;2022-12-28T13:41:59;14.70;61.60
19060;DHT22;9663;48.996;8.334;2022-12-28T13:47:21;14.80;61.70
19060;DHT22;9663;48.996;8.334;2022-12-28T13:50:26;14.70;60.90
19060;DHT22;9663;48.996;8.334;2022-12-28T13:55:38;14.60;61.50
19060;DHT22;9663;48.996;8.334;2022-12-28T13:58:15;14.70;61.50
19060;DHT22;9663;48.996;8.334;2022-12-28T14:00:47;15.20;62.10
19060;DHT22;9663;48.996;8.334;2022-12-28T14:03:15;14.60;62.80
19060;DHT22;9663;48.996;8.334;2022-12-28T14:05:51;14.80;62.20
19060;DHT22;9663;48.996;8.334;2022-12-28T14:08:20;14.80;61.70
19060;DHT22;9663;48.996;8.334;2022-12-28T14:10:47;14.60;61.80
19060;DHT22;9663;48.996;8.334;2022-12-28T14:13:15;14.90;61.90
19060;DHT22;9663;48.996;8.334;2022-12-28T14:15:42;14.80;61.90
19060;DHT22;9663;48.996;8.334;2022-12-28T14:18:13;15.20;62.20
19060;DHT22;9663;48.996;8.334;2022-12-28T14:20:54;14.60;61.70
19060;DHT22;9663;48.996;8.334;2022-12-28T14:23:29;14.80;61.30
19060;DHT22;9663;48.996;8.334;2022-12-28T14:26:01;16.40;62.40
19060;DHT22;9663;48.996;8.334;2022-12-28T14:28:39;15.90;62.20
19060;DHT22;9663;48.996;8.334;2022-12-28T14:31:09;15.10;61.80
19060;DHT22;9663;48.996;8.334;2022-12-28T14:33:51;15.20;62.60
19060;DHT22;9663;48.996;8.334;2022-12-28T14:36:22;14.90;60.90
19060;DHT22;9663;48.996;8.334;2022-12-28T14:38:52;14.90;61.30
19060;DHT22;9663;48.996;8.334;2022-12-28T14:41:23;15.10;61.30
19060;DHT22;9663;48.996;8.334;2022-12-28T14:43:58;16.50;62.00
19060;DHT22;9663;48.996;8.334;2022-12-28T14:46:33;14.80;60.70
19060;DHT22;9663;48.996;8.334;2022-12-28T14:54:48;14.70;60.10
19060;DHT22;9663;48.996;8.334;2022-12-28T14:59:58;14.70;60.50
19060;DHT22;9663;48.996;8.334;2022-12-28T15:04:59;14.50;60.70
19060;DHT22;9663;48.996;8.334;2022-12-28T15:07:25;15.10;61.50
19060;DHT22;9663;48.996;8.334;2022-12-28T15:09:50;16.30;62.30
19060;DHT22;9663;48.996;8.334;2022-12-28T15:12:18;14.30;61.00
19060;DHT22;9663;48.996;8.334;2022-12-28T15:14:46;14.40;61.20
19060;DHT22;9663;48.996;8.334;2022-12-28T15:17:14;13.90;61.10
19060;DHT22;9663;48.996;8.334;2022-12-28T15:19:41;13.90;61.00
19060;DHT22;9663;48.996;8.334;2022-12-28T15:22:07;14.10;61.30
19060;DHT22;9663;48.996;8.334;2022-12-28T15:24:34;14.50;61.70
19060;DHT22;9663;48.996;8.334;2022-12-28T15:27:03;14.20;61.50
19060;DHT22;9663;48.996;8.334;2022-12-28T15:29:29;14.00;61.40
19060;DHT22;9663;48.996;8.334;2022-12-28T15:31:55;14.60;61.90
19060;DHT22;9663;48.996;8.334;2022-12-28T15:34:21;13.60;61.40
19060;DHT22;9663;48.996;8.334;2022-12-28T15:36:47;14.10;61.80
19060;DHT22;9663;48.996;8.334;2022-12-28T15:39:13;13.60;61.50
19060;DHT22;9663;48.996;8.334;2022-12-28T15:41:40;13.60;61.50
19060;DHT22;9663;48.996;8.334;2022-12-28T15:44:17;13.60;61.70
19060;DHT22;9663;48.996;8.334;2022-12-28T15:46:44;13.30;61.40
19060;DHT22;9663;48.996;8.334;2022-12-28T15:49:13;13.60;61.70
19060;DHT22;9663;48.996;8.334;2022-12-28T15:51:39;13.50;61.70
19060;DHT22;9663;48.996;8.334;2022-12-28T15:54:06;13.20;61.60
19060;DHT22;9663;48.996;8.334;2022-12-28T15:56:35;13.30;61.70
19060;DHT22;9663;48.996;8.334;2022-12-28T15:59:05;13.10;61.60
19060;DHT22;9663;48.996;8.334;2022-12-28T16:01:33;14.00;62.30
19060;DHT22;9663;48.996;8.334;2022-12-28T16:04:01;13.20;61.70
19060;DHT22;9663;48.996;8.334;2022-12-28T16:06:27;13.00;61.70
19060;DHT22;9663;48.996;8.334;2022-12-28T16:08:57;14.30;62.50
19060;DHT22;9663;48.996;8.334;2022-12-28T16:11:25;13.10;61.70
19060;DHT22;9663;48.996;8.334;2022-12-28T16:13:58;13.70;62.10
19060;DHT22;9663;48.996;8.334;2022-12-28T16:16:28;13.40;62.00
19060;DHT22;9663;48.996;8.334;2022-12-28T16:18:56;13.20;61.70
19060;DHT22;9663;48.996;8.334;2022-12-28T16:21:23;13.10;61.70
19060;DHT22;9663;48.996;8.334;2022-12-28T16:23:50;12.90;61.70
19060;DHT22;9663;48.996;8.334;2022-12-28T16:26:17;13.80;62.30
19060;DHT22;9663;48.996;8.334;2022-12-28T16:28:43;13.10;61.90
19060;DHT22;9663;48.996;8.334;2022-12-28T16:31:32;13.20;61.90
19060;DHT22;9663;48.996;8.334;2022-12-28T16:34:05;13.10;61.30
19060;DHT22;9663;48.996;8.334;2022-12-28T16:36:33;13.00;61.70
19060;DHT22;9663;48.996;8.334;2022-12-28T16:39:02;13.00;61.70
19060;DHT22;9663;48.996;8.334;2022-12-28T16:41:29;14.00;62.50
19060;DHT22;9663;48.996;8.334;2022-12-28T16:44:00;14.70;63.00
19060;DHT22;9663;48.996;8.334;2022-12-28T16:46:28;13.10;61.60
19060;DHT22;9663;48.996;8.334;2022-12-28T16:48:54;13.20;61.90
19060;DHT22;9663;48.996;8.334;2022-12-28T16:51:20;13.00;61.80
19060;DHT22;9663;48.996;8.334;2022-12-28T16:53:45;13.30;61.90
19060;DHT22;9663;48.996;8.334;2022-12-28T16:56:11;13.10;61.90
19060;DHT22;9663;48.996;8.334;2022-12-28T16:58:37;13.20;61.80
19060;DHT22;9663;48.996;8.334;2022-12-28T17:01:07;12.90;61.50
19060;DHT22;9663;48.996;8.334;2022-12-28T17:03:34;13.10;61.60
19060;DHT22;9663;48.996;8.334;2022-12-28T17:06:01;12.80;61.60
19060;DHT22;9663;48.996;8.334;2022-12-28T17:08:27;13.10;61.70
19060;DHT22;9663;48.996;8.334;2022-12-28T17:10:53;13.00;61.60
19060;DHT22;9663;48.996;8.334;2022-12-28T17:13:19;14.60;62.70
19060;DHT22;9663;48.996;8.334;2022-12-28T17:15:44;13.20;61.80
19060;DHT22;9663;48.996;8.334;2022-12-28T17:18:11;13.00;61.60
19060;DHT22;9663;48.996;8.334;2022-12-28T17:20:38;13.40;62.00
19060;DHT22;9663;48.996;8.334;2022-12-28T17:23:05;13.20;62.60
19060;DHT22;9663;48.996;8.334;2022-12-28T17:25:32;12.90;61.60
19060;DHT22;9663;48.996;8.334;2022-12-28T17:27:59;13.00;61.70
19060;DHT22;9663;48.996;8.334;2022-12-28T17:30:25;13.00;61.70
19060;DHT22;9663;48.996;8.334;2022-12-28T17:32:51;13.10;61.80
19060;DHT22;9663;48.996;8.334;2022-12-28T17:35:17;12.80;61.50
19060;DHT22;9663;48.996;8.334;2022-12-28T17:37:43;12.90;61.60
19060;DHT22;9663;48.996;8.334;2022-12-28T17:40:09;12.70;61.50
19060;DHT22;9663;48.996;8.334;2022-12-28T17:42:36;13.20;61.60
19060;DHT22;9663;48.996;8.334;2022-12-28T17:45:02;12.90;61.60
19060;DHT22;9663;48.996;8.334;2022-12-28T17:47:28;12.90;61.60
19060;DHT22;9663;48.996;8.334;2022-12-28T17:49:53;13.00;61.60
19060;DHT22;9663;48.996;8.334;2022-12-28T17:52:19;12.80;62.30
19060;DHT22;9663;48.996;8.334;2022-12-28T17:54:50;13.00;61.70
19060;DHT22;9663;48.996;8.334;2022-12-28T17:57:16;12.90;61.50
19060;DHT22;9663;48.996;8.334;2022-12-28T17:59:42;12.90;61.60